RZO163 LPMA-LPPD
Flight info
| Callsign | RZO163 |
|---|---|
| Flight time | 1h 29m |
| Altitude | 36000 |
| Route | GALOZ DCT IRKID/M079F360 DCT 35N020W DCT ETROX DCT VSM |
| Aircraft | A320/M-SDE1FGHIRWXY/S |
Departure
| Time | 2026-05-06 20:31 |
|---|---|
| Airport | Cristiano Ronaldo International Airport (LPMA) |
Arrival
| Time | 2026-05-06 22:01 |
|---|---|
| Airport | João Paulo II Airport (LPPD) |
| Time | Latitude | Longitude | Altitude | Speed | Heading |
|---|---|---|---|---|---|
| 2026-05-06 19:59 | 32.69309 | -16.77731 | 177 ft | 0 kts | 138° |
| 2026-05-06 20:23 | 32.69311 | -16.77732 | 176 ft | 2 kts | 138° |
| 2026-05-06 20:23 | 32.69327 | -16.77749 | 176 ft | 4 kts | 143° |
| 2026-05-06 20:24 | 32.69350 | -16.77763 | 176 ft | 4 kts | 178° |
| 2026-05-06 20:24 | 32.69372 | -16.77756 | 176 ft | 3 kts | 224° |
| 2026-05-06 20:24 | 32.69377 | -16.77750 | 176 ft | 0 kts | 225° |
| 2026-05-06 20:27 | 32.69367 | -16.77763 | 176 ft | 8 kts | 225° |
| 2026-05-06 20:27 | 32.69318 | -16.77822 | 176 ft | 8 kts | 228° |
| 2026-05-06 20:27 | 32.69293 | -16.77874 | 176 ft | 7 kts | 255° |
| 2026-05-06 20:28 | 32.69289 | -16.77924 | 176 ft | 6 kts | 268° |
| 2026-05-06 20:28 | 32.69289 | -16.77980 | 176 ft | 11 kts | 268° |
| 2026-05-06 20:28 | 32.69232 | -16.78095 | 176 ft | 19 kts | 225° |
| 2026-05-06 20:28 | 32.69143 | -16.78198 | 176 ft | 17 kts | 224° |
| 2026-05-06 20:29 | 32.69064 | -16.78293 | 176 ft | 15 kts | 225° |
| 2026-05-06 20:29 | 32.68989 | -16.78375 | 176 ft | 14 kts | 211° |
| 2026-05-06 20:29 | 32.68907 | -16.78410 | 176 ft | 11 kts | 208° |
| 2026-05-06 20:29 | 32.68908 | -16.78470 | 176 ft | 7 kts | 344° |
| 2026-05-06 20:30 | 32.68933 | -16.78447 | 176 ft | 4 kts | 41° |
| 2026-05-06 20:30 | 32.68935 | -16.78445 | 176 ft | 0 kts | 41° |
| 2026-05-06 20:30 | 32.68958 | -16.78420 | 176 ft | 24 kts | 43° |
| 2026-05-06 20:31 | 32.69267 | -16.78056 | 177 ft | 97 kts | 44° |
| 2026-05-06 20:31 | 32.69892 | -16.77328 | 183 ft | 152 kts | 44° |
| 2026-05-06 20:31 | 32.70635 | -16.76414 | 662 ft | 159 kts | 46° |
| 2026-05-06 20:31 | 32.71299 | -16.75291 | 1252 ft | 174 kts | 63° |
| 2026-05-06 20:32 | 32.71534 | -16.73838 | 1848 ft | 191 kts | 94° |
| 2026-05-06 20:32 | 32.70917 | -16.72322 | 2090 ft | 224 kts | 138° |
| 2026-05-06 20:32 | 32.69422 | -16.71581 | 2517 ft | 250 kts | 178° |
| 2026-05-06 20:32 | 32.67721 | -16.72131 | 3142 ft | 263 kts | 216° |
| 2026-05-06 20:33 | 32.66377 | -16.73617 | 4054 ft | 265 kts | 231° |
| 2026-05-06 20:33 | 32.65213 | -16.75326 | 5039 ft | 268 kts | 230° |
| 2026-05-06 20:33 | 32.63928 | -16.76945 | 5976 ft | 272 kts | 223° |
| 2026-05-06 20:33 | 32.62380 | -16.78271 | 6857 ft | 277 kts | 213° |
| 2026-05-06 20:34 | 32.60749 | -16.79519 | 7704 ft | 281 kts | 221° |
| 2026-05-06 20:34 | 32.59446 | -16.81242 | 8518 ft | 282 kts | 242° |
| 2026-05-06 20:34 | 32.58774 | -16.83407 | 9337 ft | 282 kts | 264° |
| 2026-05-06 20:34 | 32.58811 | -16.85724 | 10185 ft | 281 kts | 280° |
| 2026-05-06 20:35 | 32.59083 | -16.88093 | 10598 ft | 302 kts | 281° |
| 2026-05-06 20:35 | 32.59663 | -16.90524 | 10834 ft | 321 kts | 299° |
| 2026-05-06 20:35 | 32.60978 | -16.92756 | 11131 ft | 339 kts | 309° |
| 2026-05-06 20:35 | 32.62455 | -16.94964 | 11757 ft | 345 kts | 309° |
| 2026-05-06 20:36 | 32.63969 | -16.97200 | 12489 ft | 349 kts | 310° |
| 2026-05-06 20:36 | 32.65500 | -16.99456 | 13221 ft | 353 kts | 310° |
| 2026-05-06 20:36 | 32.67047 | -17.01741 | 13918 ft | 356 kts | 309° |
| 2026-05-06 20:36 | 32.68602 | -17.04046 | 14579 ft | 359 kts | 309° |
| 2026-05-06 20:37 | 32.70163 | -17.06370 | 15210 ft | 362 kts | 309° |
| 2026-05-06 20:37 | 32.71742 | -17.08721 | 15844 ft | 365 kts | 309° |
| 2026-05-06 20:37 | 32.73332 | -17.11093 | 16472 ft | 368 kts | 309° |
| 2026-05-06 20:37 | 32.74931 | -17.13484 | 17105 ft | 371 kts | 309° |
| 2026-05-06 20:38 | 32.76537 | -17.15889 | 17755 ft | 373 kts | 310° |
| 2026-05-06 20:38 | 32.78156 | -17.18314 | 18393 ft | 376 kts | 310° |
| 2026-05-06 20:38 | 32.79789 | -17.20759 | 18943 ft | 378 kts | 310° |
| 2026-05-06 20:38 | 32.81428 | -17.23214 | 19520 ft | 381 kts | 310° |
| 2026-05-06 20:39 | 32.83081 | -17.25693 | 20090 ft | 383 kts | 310° |
| 2026-05-06 20:39 | 32.84743 | -17.28185 | 20639 ft | 385 kts | 310° |
| 2026-05-06 20:39 | 32.86411 | -17.30688 | 21166 ft | 388 kts | 310° |
| 2026-05-06 20:39 | 32.88089 | -17.33210 | 21682 ft | 390 kts | 309° |
| 2026-05-06 20:40 | 32.89751 | -17.35712 | 22186 ft | 392 kts | 309° |
| 2026-05-06 20:40 | 32.91449 | -17.38266 | 22674 ft | 394 kts | 309° |
| 2026-05-06 20:40 | 32.93154 | -17.40827 | 23137 ft | 396 kts | 309° |
| 2026-05-06 20:40 | 32.94873 | -17.43409 | 23606 ft | 398 kts | 309° |
| 2026-05-06 20:41 | 32.96598 | -17.46003 | 24006 ft | 400 kts | 309° |
| 2026-05-06 20:41 | 32.98326 | -17.48609 | 24394 ft | 402 kts | 309° |
| 2026-05-06 20:41 | 33.00063 | -17.51237 | 24769 ft | 404 kts | 309° |
| 2026-05-06 20:41 | 33.01801 | -17.53871 | 25136 ft | 406 kts | 309° |
| 2026-05-06 20:42 | 33.03548 | -17.56520 | 25487 ft | 407 kts | 309° |
| 2026-05-06 20:42 | 33.05304 | -17.59178 | 25842 ft | 409 kts | 309° |
| 2026-05-06 20:42 | 33.07068 | -17.61845 | 26191 ft | 410 kts | 309° |
| 2026-05-06 20:42 | 33.08839 | -17.64521 | 26537 ft | 412 kts | 309° |
| 2026-05-06 20:43 | 33.10619 | -17.67214 | 26874 ft | 413 kts | 309° |
| 2026-05-06 20:43 | 33.12403 | -17.69916 | 27198 ft | 415 kts | 309° |
| 2026-05-06 20:43 | 33.14188 | -17.72625 | 27512 ft | 416 kts | 309° |
| 2026-05-06 20:43 | 33.15981 | -17.75353 | 27792 ft | 418 kts | 309° |
| 2026-05-06 20:44 | 33.17781 | -17.78090 | 28080 ft | 420 kts | 309° |
| 2026-05-06 20:44 | 33.19557 | -17.80791 | 28369 ft | 421 kts | 309° |
| 2026-05-06 20:44 | 33.21374 | -17.83558 | 28647 ft | 422 kts | 309° |
| 2026-05-06 20:44 | 33.23188 | -17.86322 | 28910 ft | 424 kts | 309° |
| 2026-05-06 20:45 | 33.25007 | -17.89099 | 29163 ft | 425 kts | 309° |
| 2026-05-06 20:45 | 33.26829 | -17.91883 | 29489 ft | 424 kts | 309° |
| 2026-05-06 20:45 | 33.28643 | -17.94652 | 29840 ft | 422 kts | 309° |
| 2026-05-06 20:45 | 33.30451 | -17.97412 | 30195 ft | 421 kts | 309° |
| 2026-05-06 20:46 | 33.32252 | -18.00167 | 30502 ft | 420 kts | 309° |
| 2026-05-06 20:46 | 33.34045 | -18.02914 | 30801 ft | 418 kts | 309° |
| 2026-05-06 20:46 | 33.35835 | -18.05655 | 31092 ft | 417 kts | 309° |
| 2026-05-06 20:46 | 33.37625 | -18.08395 | 31393 ft | 416 kts | 309° |
| 2026-05-06 20:47 | 33.39404 | -18.11122 | 31674 ft | 416 kts | 309° |
| 2026-05-06 20:47 | 33.41180 | -18.13846 | 31953 ft | 415 kts | 309° |
| 2026-05-06 20:47 | 33.42952 | -18.16570 | 32251 ft | 414 kts | 309° |
| 2026-05-06 20:47 | 33.44720 | -18.19289 | 32550 ft | 413 kts | 309° |
| 2026-05-06 20:48 | 33.46479 | -18.21997 | 32865 ft | 412 kts | 309° |
| 2026-05-06 20:48 | 33.48234 | -18.24700 | 33173 ft | 410 kts | 309° |
| 2026-05-06 20:48 | 33.49391 | -18.26481 | 33373 ft | 409 kts | 309° |
| 2026-05-06 20:48 | 33.51140 | -18.29178 | 33682 ft | 408 kts | 309° |
| 2026-05-06 20:49 | 33.53436 | -18.32729 | 34092 ft | 407 kts | 309° |
| 2026-05-06 20:49 | 33.54607 | -18.34540 | 34280 ft | 406 kts | 309° |
| 2026-05-06 20:49 | 33.56343 | -18.37216 | 34546 ft | 405 kts | 309° |
| 2026-05-06 20:49 | 33.58048 | -18.39842 | 34797 ft | 404 kts | 309° |
| 2026-05-06 20:50 | 33.59766 | -18.42497 | 35096 ft | 402 kts | 309° |
| 2026-05-06 20:50 | 33.61476 | -18.45142 | 35354 ft | 401 kts | 309° |
| 2026-05-06 20:50 | 33.63180 | -18.47787 | 35596 ft | 400 kts | 309° |
| 2026-05-06 20:50 | 33.64879 | -18.50422 | 35820 ft | 399 kts | 309° |
| 2026-05-06 20:51 | 33.66572 | -18.53053 | 36047 ft | 398 kts | 309° |
| 2026-05-06 20:51 | 33.69962 | -18.58328 | 36150 ft | 399 kts | 309° |
| 2026-05-06 20:52 | 33.73357 | -18.63602 | 36150 ft | 399 kts | 309° |
| 2026-05-06 20:52 | 33.76746 | -18.68882 | 36152 ft | 399 kts | 309° |
| 2026-05-06 20:53 | 33.80109 | -18.74132 | 36168 ft | 399 kts | 308° |
| 2026-05-06 20:53 | 33.83491 | -18.79415 | 36157 ft | 398 kts | 308° |
| 2026-05-06 20:54 | 33.86874 | -18.84710 | 36162 ft | 398 kts | 308° |
| 2026-05-06 20:54 | 33.90252 | -18.90000 | 36164 ft | 399 kts | 308° |
| 2026-05-06 20:55 | 33.93635 | -18.95305 | 36165 ft | 399 kts | 308° |
| 2026-05-06 20:55 | 33.96991 | -19.00580 | 36168 ft | 399 kts | 308° |
| 2026-05-06 20:56 | 34.00364 | -19.05889 | 36184 ft | 399 kts | 308° |
| 2026-05-06 20:56 | 34.03744 | -19.11207 | 36182 ft | 399 kts | 308° |
| 2026-05-06 20:57 | 34.07117 | -19.16524 | 36170 ft | 399 kts | 308° |
| 2026-05-06 20:57 | 34.10478 | -19.21847 | 36173 ft | 399 kts | 308° |
| 2026-05-06 20:58 | 34.13843 | -19.27191 | 36178 ft | 399 kts | 308° |
| 2026-05-06 20:58 | 34.17209 | -19.32522 | 36179 ft | 399 kts | 308° |
| 2026-05-06 20:59 | 34.20574 | -19.37857 | 36194 ft | 399 kts | 308° |
| 2026-05-06 20:59 | 34.23933 | -19.43211 | 36189 ft | 399 kts | 307° |
| 2026-05-06 21:00 | 34.27269 | -19.48528 | 36168 ft | 399 kts | 307° |
| 2026-05-06 21:00 | 34.30619 | -19.53865 | 36174 ft | 399 kts | 307° |
| 2026-05-06 21:01 | 34.33973 | -19.59212 | 36176 ft | 399 kts | 307° |
| 2026-05-06 21:01 | 34.37323 | -19.64558 | 36175 ft | 399 kts | 307° |
| 2026-05-06 21:02 | 34.40668 | -19.69920 | 36179 ft | 399 kts | 307° |
| 2026-05-06 21:02 | 34.44009 | -19.75288 | 36179 ft | 399 kts | 307° |
| 2026-05-06 21:03 | 34.47351 | -19.80659 | 36165 ft | 399 kts | 307° |
| 2026-05-06 21:03 | 34.50681 | -19.86028 | 36172 ft | 398 kts | 307° |
| 2026-05-06 21:04 | 34.54009 | -19.91392 | 36175 ft | 398 kts | 307° |
| 2026-05-06 21:04 | 34.57321 | -19.96741 | 36190 ft | 398 kts | 307° |
| 2026-05-06 21:05 | 34.60643 | -20.02115 | 36187 ft | 398 kts | 307° |
| 2026-05-06 21:05 | 34.63968 | -20.07501 | 36194 ft | 398 kts | 307° |
| 2026-05-06 21:06 | 34.67291 | -20.12890 | 36190 ft | 398 kts | 307° |
| 2026-05-06 21:06 | 34.70602 | -20.18277 | 36171 ft | 397 kts | 307° |
| 2026-05-06 21:07 | 34.73893 | -20.23618 | 36175 ft | 397 kts | 307° |
| 2026-05-06 21:07 | 34.77198 | -20.29013 | 36193 ft | 397 kts | 306° |
| 2026-05-06 21:08 | 34.80499 | -20.34413 | 36186 ft | 397 kts | 307° |
| 2026-05-06 21:08 | 34.83812 | -20.39801 | 36186 ft | 397 kts | 307° |
| 2026-05-06 21:09 | 34.87116 | -20.45183 | 36185 ft | 397 kts | 306° |
| 2026-05-06 21:09 | 34.90409 | -20.50584 | 36168 ft | 397 kts | 306° |
| 2026-05-06 21:10 | 34.93699 | -20.56001 | 36170 ft | 397 kts | 306° |
| 2026-05-06 21:10 | 34.96991 | -20.61420 | 36188 ft | 398 kts | 306° |
| 2026-05-06 21:11 | 35.00279 | -20.66844 | 36184 ft | 397 kts | 306° |
| 2026-05-06 21:11 | 35.03547 | -20.72234 | 36182 ft | 397 kts | 306° |
| 2026-05-06 21:12 | 35.06837 | -20.77658 | 36179 ft | 397 kts | 306° |
| 2026-05-06 21:12 | 35.10131 | -20.83100 | 36163 ft | 398 kts | 306° |
| 2026-05-06 21:13 | 35.13419 | -20.88550 | 36167 ft | 398 kts | 306° |
| 2026-05-06 21:13 | 35.16704 | -20.94007 | 36184 ft | 399 kts | 306° |
| 2026-05-06 21:14 | 35.19975 | -20.99444 | 36189 ft | 399 kts | 306° |
| 2026-05-06 21:14 | 35.23267 | -21.04915 | 36191 ft | 399 kts | 306° |
| 2026-05-06 21:15 | 35.26560 | -21.10394 | 36190 ft | 399 kts | 306° |
| 2026-05-06 21:15 | 35.29839 | -21.15881 | 36177 ft | 399 kts | 306° |
| 2026-05-06 21:16 | 35.33124 | -21.21369 | 36189 ft | 400 kts | 306° |
| 2026-05-06 21:16 | 35.36385 | -21.26831 | 36186 ft | 400 kts | 306° |
| 2026-05-06 21:17 | 35.39673 | -21.32351 | 36188 ft | 400 kts | 306° |
| 2026-05-06 21:17 | 35.42949 | -21.37858 | 36186 ft | 400 kts | 306° |
| 2026-05-06 21:18 | 35.46229 | -21.43372 | 36181 ft | 400 kts | 305° |
| 2026-05-06 21:18 | 35.49507 | -21.48904 | 36177 ft | 400 kts | 305° |
| 2026-05-06 21:19 | 35.52777 | -21.54429 | 36198 ft | 400 kts | 305° |
| 2026-05-06 21:19 | 35.56027 | -21.59933 | 36193 ft | 400 kts | 305° |
| 2026-05-06 21:20 | 35.59306 | -21.65473 | 36187 ft | 400 kts | 305° |
| 2026-05-06 21:20 | 35.62575 | -21.71006 | 36190 ft | 400 kts | 305° |
| 2026-05-06 21:21 | 35.65836 | -21.76551 | 36191 ft | 400 kts | 305° |
| 2026-05-06 21:21 | 35.69097 | -21.82104 | 36199 ft | 400 kts | 304° |
| 2026-05-06 21:22 | 35.72355 | -21.87652 | 36203 ft | 400 kts | 304° |
| 2026-05-06 21:22 | 35.75607 | -21.93215 | 36201 ft | 400 kts | 304° |
| 2026-05-06 21:23 | 35.78855 | -21.98766 | 36205 ft | 400 kts | 304° |
| 2026-05-06 21:23 | 35.82108 | -22.04324 | 36205 ft | 400 kts | 304° |
| 2026-05-06 21:24 | 35.85355 | -22.09886 | 36205 ft | 400 kts | 304° |
| 2026-05-06 21:24 | 35.88599 | -22.15448 | 36221 ft | 399 kts | 304° |
| 2026-05-06 21:25 | 35.91818 | -22.20989 | 36217 ft | 399 kts | 304° |
| 2026-05-06 21:25 | 35.95035 | -22.26561 | 36209 ft | 399 kts | 304° |
| 2026-05-06 21:26 | 35.98261 | -22.32142 | 36208 ft | 399 kts | 304° |
| 2026-05-06 21:26 | 36.01496 | -22.37720 | 36200 ft | 399 kts | 304° |
| 2026-05-06 21:27 | 36.04729 | -22.43306 | 36231 ft | 399 kts | 304° |
| 2026-05-06 21:27 | 36.07932 | -22.48865 | 36211 ft | 399 kts | 303° |
| 2026-05-06 21:28 | 36.11146 | -22.54452 | 36214 ft | 398 kts | 303° |
| 2026-05-06 21:28 | 36.14359 | -22.60047 | 36215 ft | 398 kts | 303° |
| 2026-05-06 21:29 | 36.17566 | -22.65647 | 36211 ft | 398 kts | 303° |
| 2026-05-06 21:29 | 36.20767 | -22.71248 | 36211 ft | 398 kts | 303° |
| 2026-05-06 21:30 | 36.23955 | -22.76814 | 36209 ft | 398 kts | 303° |
| 2026-05-06 21:30 | 36.27159 | -22.82416 | 36197 ft | 398 kts | 303° |
| 2026-05-06 21:31 | 36.30349 | -22.88019 | 36203 ft | 398 kts | 303° |
| 2026-05-06 21:31 | 36.33541 | -22.93625 | 36201 ft | 398 kts | 303° |
| 2026-05-06 21:32 | 36.36729 | -22.99232 | 36219 ft | 397 kts | 303° |
| 2026-05-06 21:32 | 36.41485 | -23.07617 | 36217 ft | 397 kts | 303° |
| 2026-05-06 21:33 | 36.44655 | -23.13238 | 36198 ft | 397 kts | 303° |
| 2026-05-06 21:33 | 36.47825 | -23.18856 | 36196 ft | 397 kts | 303° |
| 2026-05-06 21:34 | 36.51007 | -23.24480 | 36193 ft | 398 kts | 303° |
| 2026-05-06 21:34 | 36.54182 | -23.30117 | 36221 ft | 398 kts | 302° |
| 2026-05-06 21:35 | 36.56839 | -23.34842 | 36215 ft | 398 kts | 302° |
| 2026-05-06 21:35 | 36.59994 | -23.40453 | 36209 ft | 398 kts | 302° |
| 2026-05-06 21:36 | 36.63161 | -23.46111 | 36198 ft | 398 kts | 302° |
| 2026-05-06 21:36 | 36.66325 | -23.51773 | 36194 ft | 398 kts | 302° |
| 2026-05-06 21:37 | 36.69483 | -23.57436 | 36198 ft | 398 kts | 302° |
| 2026-05-06 21:37 | 36.72636 | -23.63102 | 36215 ft | 398 kts | 302° |
| 2026-05-06 21:38 | 36.75775 | -23.68736 | 36205 ft | 398 kts | 302° |
| 2026-05-06 21:38 | 36.78929 | -23.74399 | 36195 ft | 397 kts | 302° |
| 2026-05-06 21:39 | 36.80505 | -23.77234 | 35978 ft | 398 kts | 301° |
| 2026-05-06 21:39 | 36.82101 | -23.80113 | 35727 ft | 398 kts | 301° |
| 2026-05-06 21:39 | 36.83656 | -23.82921 | 35487 ft | 399 kts | 301° |
| 2026-05-06 21:39 | 36.85236 | -23.85779 | 35240 ft | 399 kts | 301° |
| 2026-05-06 21:40 | 36.86815 | -23.88639 | 35023 ft | 400 kts | 301° |
| 2026-05-06 21:40 | 36.88392 | -23.91499 | 34786 ft | 401 kts | 301° |
| 2026-05-06 21:40 | 36.89977 | -23.94372 | 34545 ft | 402 kts | 301° |
| 2026-05-06 21:40 | 36.91562 | -23.97248 | 34309 ft | 402 kts | 301° |
| 2026-05-06 21:41 | 36.93149 | -24.00132 | 34060 ft | 403 kts | 301° |
| 2026-05-06 21:41 | 36.94740 | -24.03022 | 33773 ft | 404 kts | 301° |
| 2026-05-06 21:41 | 36.96338 | -24.05922 | 32916 ft | 405 kts | 301° |
| 2026-05-06 21:41 | 36.97938 | -24.08829 | 32025 ft | 406 kts | 301° |
| 2026-05-06 21:42 | 36.99541 | -24.11747 | 31119 ft | 407 kts | 301° |
| 2026-05-06 21:42 | 37.01151 | -24.14687 | 30169 ft | 410 kts | 301° |
| 2026-05-06 21:42 | 37.02772 | -24.17652 | 29099 ft | 413 kts | 301° |
| 2026-05-06 21:42 | 37.04400 | -24.20624 | 27986 ft | 415 kts | 301° |
| 2026-05-06 21:43 | 37.06038 | -24.23611 | 26882 ft | 417 kts | 301° |
| 2026-05-06 21:43 | 37.07680 | -24.26607 | 25886 ft | 417 kts | 301° |
| 2026-05-06 21:43 | 37.09307 | -24.29575 | 25196 ft | 410 kts | 301° |
| 2026-05-06 21:43 | 37.10891 | -24.32467 | 24472 ft | 406 kts | 301° |
| 2026-05-06 21:44 | 37.12475 | -24.35363 | 23754 ft | 401 kts | 301° |
| 2026-05-06 21:44 | 37.14041 | -24.38236 | 22992 ft | 397 kts | 301° |
| 2026-05-06 21:44 | 37.15590 | -24.41087 | 22324 ft | 391 kts | 301° |
| 2026-05-06 21:44 | 37.17110 | -24.43888 | 21690 ft | 386 kts | 301° |
| 2026-05-06 21:45 | 37.18614 | -24.46660 | 21071 ft | 382 kts | 301° |
| 2026-05-06 21:45 | 37.20099 | -24.49399 | 20450 ft | 378 kts | 301° |
| 2026-05-06 21:45 | 37.21573 | -24.52121 | 19858 ft | 375 kts | 301° |
| 2026-05-06 21:45 | 37.23030 | -24.54806 | 19290 ft | 372 kts | 301° |
| 2026-05-06 21:46 | 37.24480 | -24.57479 | 18745 ft | 368 kts | 301° |
| 2026-05-06 21:46 | 37.25916 | -24.60130 | 18170 ft | 366 kts | 301° |
| 2026-05-06 21:46 | 37.27338 | -24.62754 | 17655 ft | 361 kts | 301° |
| 2026-05-06 21:46 | 37.28740 | -24.65344 | 17151 ft | 356 kts | 301° |
| 2026-05-06 21:47 | 37.30118 | -24.67893 | 16693 ft | 350 kts | 301° |
| 2026-05-06 21:47 | 37.31474 | -24.70406 | 16224 ft | 346 kts | 301° |
| 2026-05-06 21:47 | 37.32816 | -24.72896 | 15760 ft | 343 kts | 301° |
| 2026-05-06 21:47 | 37.34144 | -24.75365 | 15304 ft | 340 kts | 301° |
| 2026-05-06 21:48 | 37.35448 | -24.77788 | 14809 ft | 338 kts | 302° |
| 2026-05-06 21:48 | 37.36761 | -24.80227 | 14318 ft | 336 kts | 302° |
| 2026-05-06 21:48 | 37.38080 | -24.82680 | 13782 ft | 334 kts | 302° |
| 2026-05-06 21:48 | 37.39376 | -24.85092 | 13241 ft | 331 kts | 302° |
| 2026-05-06 21:49 | 37.40662 | -24.87484 | 12693 ft | 329 kts | 302° |
| 2026-05-06 21:49 | 37.41923 | -24.89830 | 12152 ft | 328 kts | 302° |
| 2026-05-06 21:49 | 37.43196 | -24.92203 | 11588 ft | 326 kts | 302° |
| 2026-05-06 21:49 | 37.44457 | -24.94564 | 11142 ft | 321 kts | 302° |
| 2026-05-06 21:50 | 37.45674 | -24.96835 | 11016 ft | 306 kts | 302° |
| 2026-05-06 21:50 | 37.46841 | -24.99009 | 10890 ft | 293 kts | 301° |
| 2026-05-06 21:50 | 37.47948 | -25.01072 | 10635 ft | 276 kts | 301° |
| 2026-05-06 21:50 | 37.49005 | -25.03051 | 10293 ft | 271 kts | 301° |
| 2026-05-06 21:51 | 37.50049 | -25.05015 | 10089 ft | 269 kts | 301° |
| 2026-05-06 21:51 | 37.51094 | -25.06978 | 9964 ft | 269 kts | 301° |
| 2026-05-06 21:51 | 37.52137 | -25.08933 | 9826 ft | 269 kts | 301° |
| 2026-05-06 21:51 | 37.53177 | -25.10885 | 9688 ft | 266 kts | 301° |
| 2026-05-06 21:52 | 37.54185 | -25.12777 | 9549 ft | 255 kts | 301° |
| 2026-05-06 21:52 | 37.55149 | -25.14588 | 9411 ft | 240 kts | 301° |
| 2026-05-06 21:52 | 37.56043 | -25.16265 | 9271 ft | 222 kts | 301° |
| 2026-05-06 21:52 | 37.56893 | -25.17864 | 9095 ft | 219 kts | 301° |
| 2026-05-06 21:53 | 37.57743 | -25.19467 | 8728 ft | 219 kts | 301° |
| 2026-05-06 21:53 | 37.58586 | -25.21060 | 8408 ft | 217 kts | 300° |
| 2026-05-06 21:53 | 37.59258 | -25.22735 | 8102 ft | 213 kts | 289° |
| 2026-05-06 21:53 | 37.59805 | -25.24462 | 7790 ft | 211 kts | 290° |
| 2026-05-06 21:54 | 37.60354 | -25.26176 | 7487 ft | 210 kts | 290° |
| 2026-05-06 21:54 | 37.60902 | -25.27882 | 7187 ft | 209 kts | 290° |
| 2026-05-06 21:54 | 37.61449 | -25.29583 | 6888 ft | 209 kts | 290° |
| 2026-05-06 21:54 | 37.61987 | -25.31260 | 6590 ft | 208 kts | 290° |
| 2026-05-06 21:55 | 37.62528 | -25.32948 | 6282 ft | 207 kts | 290° |
| 2026-05-06 21:55 | 37.63063 | -25.34629 | 5993 ft | 207 kts | 290° |
| 2026-05-06 21:55 | 37.63596 | -25.36319 | 5661 ft | 207 kts | 290° |
| 2026-05-06 21:55 | 37.64127 | -25.37999 | 5363 ft | 206 kts | 290° |
| 2026-05-06 21:56 | 37.64659 | -25.39673 | 5087 ft | 205 kts | 290° |
| 2026-05-06 21:56 | 37.65190 | -25.41340 | 4808 ft | 204 kts | 290° |
| 2026-05-06 21:56 | 37.65720 | -25.43003 | 4529 ft | 205 kts | 290° |
| 2026-05-06 21:56 | 37.66250 | -25.44670 | 4245 ft | 204 kts | 290° |
| 2026-05-06 21:57 | 37.66779 | -25.46332 | 3968 ft | 204 kts | 290° |
| 2026-05-06 21:57 | 37.67306 | -25.47991 | 3692 ft | 202 kts | 289° |
| 2026-05-06 21:57 | 37.67827 | -25.49631 | 3426 ft | 200 kts | 289° |
| 2026-05-06 21:57 | 37.68344 | -25.51260 | 3153 ft | 200 kts | 289° |
| 2026-05-06 21:58 | 37.68863 | -25.52896 | 2878 ft | 200 kts | 289° |
| 2026-05-06 21:58 | 37.69377 | -25.54518 | 2608 ft | 198 kts | 289° |
| 2026-05-06 21:58 | 37.69889 | -25.56134 | 2344 ft | 199 kts | 289° |
| 2026-05-06 21:58 | 37.70407 | -25.57770 | 2068 ft | 202 kts | 289° |
| 2026-05-06 21:59 | 37.70927 | -25.59410 | 1791 ft | 200 kts | 289° |
| 2026-05-06 21:59 | 37.71443 | -25.61043 | 1494 ft | 200 kts | 290° |
| 2026-05-06 21:59 | 37.71963 | -25.62687 | 1234 ft | 202 kts | 290° |
| 2026-05-06 21:59 | 37.72474 | -25.64301 | 951 ft | 191 kts | 289° |
| 2026-05-06 22:00 | 37.72938 | -25.65766 | 744 ft | 173 kts | 289° |
| 2026-05-06 22:00 | 37.73366 | -25.67120 | 501 ft | 159 kts | 289° |
| 2026-05-06 22:00 | 37.73754 | -25.68352 | 309 ft | 144 kts | 289° |
| 2026-05-06 22:00 | 37.74097 | -25.69456 | 222 ft | 118 kts | 291° |
| 2026-05-06 22:01 | 37.74339 | -25.70211 | 245 ft | 67 kts | 292° |
| 2026-05-06 22:01 | 37.74473 | -25.70636 | 263 ft | 42 kts | 292° |
| 2026-05-06 22:01 | 37.74533 | -25.70821 | 269 ft | 16 kts | 293° |
| 2026-05-06 22:01 | 37.74599 | -25.70841 | 272 ft | 8 kts | 17° |
| 2026-05-06 22:02 | 37.74645 | -25.70828 | 272 ft | 6 kts | 8° |
| 2026-05-06 22:02 | 37.74686 | -25.70831 | 272 ft | 10 kts | 348° |
| 2026-05-06 22:02 | 37.74737 | -25.70905 | 272 ft | 12 kts | 293° |
| 2026-05-06 22:02 | 37.74775 | -25.70963 | 272 ft | 8 kts | 4° |
| 2026-05-06 22:03 | 37.74820 | -25.70942 | 272 ft | 6 kts | 22° |
| 2026-05-06 22:03 | 37.74825 | -25.70940 | 272 ft | 0 kts | 23° |